sensor_id;sensor_type;location;lat;lon;timestamp;P1;durP1;ratioP1;P2;durP2;ratioP2
38725;SDS011;24474;48.906;8.808;2024-01-07T00:01:02;38.67;;;15.23;;
38725;SDS011;24474;48.906;8.808;2024-01-07T00:03:28;20.83;;;13.65;;
38725;SDS011;24474;48.906;8.808;2024-01-07T00:05:53;22.88;;;14.98;;
38725;SDS011;24474;48.906;8.808;2024-01-07T00:08:19;49.47;;;13.93;;
38725;SDS011;24474;48.906;8.808;2024-01-07T00:10:46;24.65;;;15.07;;
38725;SDS011;24474;48.906;8.808;2024-01-07T00:13:11;31.23;;;15.35;;
38725;SDS011;24474;48.906;8.808;2024-01-07T00:15:37;21.75;;;15.10;;
38725;SDS011;24474;48.906;8.808;2024-01-07T00:18:02;25.23;;;15.07;;
38725;SDS011;24474;48.906;8.808;2024-01-07T00:20:28;23.80;;;15.88;;
38725;SDS011;24474;48.906;8.808;2024-01-07T00:22:54;21.75;;;14.27;;
38725;SDS011;24474;48.906;8.808;2024-01-07T00:25:21;19.05;;;13.15;;
38725;SDS011;24474;48.906;8.808;2024-01-07T00:27:47;23.73;;;14.70;;
38725;SDS011;24474;48.906;8.808;2024-01-07T00:30:12;19.92;;;13.25;;
38725;SDS011;24474;48.906;8.808;2024-01-07T00:32:38;21.50;;;14.40;;
38725;SDS011;24474;48.906;8.808;2024-01-07T00:35:04;21.30;;;14.40;;
38725;SDS011;24474;48.906;8.808;2024-01-07T00:37:30;20.75;;;13.25;;
38725;SDS011;24474;48.906;8.808;2024-01-07T00:39:56;21.90;;;13.70;;
38725;SDS011;24474;48.906;8.808;2024-01-07T00:42:22;20.42;;;13.65;;
38725;SDS011;24474;48.906;8.808;2024-01-07T00:44:47;21.67;;;14.88;;
38725;SDS011;24474;48.906;8.808;2024-01-07T00:47:13;20.88;;;14.00;;
38725;SDS011;24474;48.906;8.808;2024-01-07T00:49:38;18.33;;;12.60;;
38725;SDS011;24474;48.906;8.808;2024-01-07T00:52:05;19.67;;;13.55;;
38725;SDS011;24474;48.906;8.808;2024-01-07T00:54:31;19.70;;;13.55;;
38725;SDS011;24474;48.906;8.808;2024-01-07T00:56:56;22.13;;;13.45;;
38725;SDS011;24474;48.906;8.808;2024-01-07T00:59:22;19.70;;;13.60;;
38725;SDS011;24474;48.906;8.808;2024-01-07T01:01:48;19.23;;;13.00;;
38725;SDS011;24474;48.906;8.808;2024-01-07T01:04:13;20.58;;;13.88;;
38725;SDS011;24474;48.906;8.808;2024-01-07T01:06:39;19.02;;;12.85;;
38725;SDS011;24474;48.906;8.808;2024-01-07T01:09:04;21.23;;;13.68;;
38725;SDS011;24474;48.906;8.808;2024-01-07T01:11:30;20.00;;;12.93;;
38725;SDS011;24474;48.906;8.808;2024-01-07T01:13:56;18.50;;;12.57;;
38725;SDS011;24474;48.906;8.808;2024-01-07T01:16:21;18.65;;;12.88;;
38725;SDS011;24474;48.906;8.808;2024-01-07T01:18:49;17.77;;;12.15;;
38725;SDS011;24474;48.906;8.808;2024-01-07T01:21:15;19.55;;;12.85;;
38725;SDS011;24474;48.906;8.808;2024-01-07T01:23:40;16.75;;;12.63;;
38725;SDS011;24474;48.906;8.808;2024-01-07T01:26:06;16.88;;;11.82;;
38725;SDS011;24474;48.906;8.808;2024-01-07T01:28:32;17.40;;;11.75;;
38725;SDS011;24474;48.906;8.808;2024-01-07T01:30:58;16.40;;;9.90;;
38725;SDS011;24474;48.906;8.808;2024-01-07T01:33:23;15.23;;;10.55;;
38725;SDS011;24474;48.906;8.808;2024-01-07T01:35:49;14.52;;;10.77;;
38725;SDS011;24474;48.906;8.808;2024-01-07T01:38:15;14.73;;;9.93;;
38725;SDS011;24474;48.906;8.808;2024-01-07T01:40:40;14.43;;;10.30;;
38725;SDS011;24474;48.906;8.808;2024-01-07T01:43:06;15.75;;;10.40;;
38725;SDS011;24474;48.906;8.808;2024-01-07T01:45:31;14.80;;;9.85;;
38725;SDS011;24474;48.906;8.808;2024-01-07T01:47:57;14.93;;;10.02;;
38725;SDS011;24474;48.906;8.808;2024-01-07T01:50:23;13.48;;;9.85;;
38725;SDS011;24474;48.906;8.808;2024-01-07T01:52:49;13.63;;;9.48;;
38725;SDS011;24474;48.906;8.808;2024-01-07T01:55:16;15.35;;;10.07;;
38725;SDS011;24474;48.906;8.808;2024-01-07T01:57:42;14.25;;;9.27;;
38725;SDS011;24474;48.906;8.808;2024-01-07T02:00:09;15.50;;;10.20;;
38725;SDS011;24474;48.906;8.808;2024-01-07T02:02:35;16.15;;;10.40;;
38725;SDS011;24474;48.906;8.808;2024-01-07T02:05:01;16.65;;;11.02;;
38725;SDS011;24474;48.906;8.808;2024-01-07T02:07:30;19.58;;;12.48;;
38725;SDS011;24474;48.906;8.808;2024-01-07T02:09:56;19.83;;;13.13;;
38725;SDS011;24474;48.906;8.808;2024-01-07T02:12:22;20.55;;;13.13;;
38725;SDS011;24474;48.906;8.808;2024-01-07T02:14:48;20.25;;;13.95;;
38725;SDS011;24474;48.906;8.808;2024-01-07T02:17:14;22.45;;;13.70;;
38725;SDS011;24474;48.906;8.808;2024-01-07T02:19:40;20.15;;;14.15;;
38725;SDS011;24474;48.906;8.808;2024-01-07T02:22:06;23.20;;;14.43;;
38725;SDS011;24474;48.906;8.808;2024-01-07T02:24:31;22.13;;;15.43;;
38725;SDS011;24474;48.906;8.808;2024-01-07T02:26:57;24.10;;;15.02;;
38725;SDS011;24474;48.906;8.808;2024-01-07T02:29:27;25.65;;;17.10;;
38725;SDS011;24474;48.906;8.808;2024-01-07T02:31:53;24.55;;;15.90;;
38725;SDS011;24474;48.906;8.808;2024-01-07T02:34:18;26.10;;;17.17;;
38725;SDS011;24474;48.906;8.808;2024-01-07T02:36:44;28.02;;;17.90;;
38725;SDS011;24474;48.906;8.808;2024-01-07T02:39:10;25.33;;;16.65;;
38725;SDS011;24474;48.906;8.808;2024-01-07T02:41:35;24.35;;;15.95;;
38725;SDS011;24474;48.906;8.808;2024-01-07T02:44:01;27.15;;;17.15;;
38725;SDS011;24474;48.906;8.808;2024-01-07T02:46:26;25.40;;;16.38;;
38725;SDS011;24474;48.906;8.808;2024-01-07T02:48:52;26.55;;;17.35;;
38725;SDS011;24474;48.906;8.808;2024-01-07T02:51:17;24.15;;;15.82;;
38725;SDS011;24474;48.906;8.808;2024-01-07T02:53:44;26.80;;;16.10;;
38725;SDS011;24474;48.906;8.808;2024-01-07T02:56:09;29.08;;;17.58;;
38725;SDS011;24474;48.906;8.808;2024-01-07T02:58:35;24.63;;;16.08;;
38725;SDS011;24474;48.906;8.808;2024-01-07T03:01:01;26.70;;;17.13;;
38725;SDS011;24474;48.906;8.808;2024-01-07T03:03:26;27.75;;;16.92;;
38725;SDS011;24474;48.906;8.808;2024-01-07T03:05:52;34.22;;;17.27;;
38725;SDS011;24474;48.906;8.808;2024-01-07T03:08:18;29.83;;;17.60;;
38725;SDS011;24474;48.906;8.808;2024-01-07T03:10:43;28.13;;;17.50;;
38725;SDS011;24474;48.906;8.808;2024-01-07T03:13:12;32.00;;;17.65;;
38725;SDS011;24474;48.906;8.808;2024-01-07T03:15:38;27.92;;;18.00;;
38725;SDS011;24474;48.906;8.808;2024-01-07T03:18:03;28.50;;;17.83;;
38725;SDS011;24474;48.906;8.808;2024-01-07T03:20:29;35.88;;;17.83;;
38725;SDS011;24474;48.906;8.808;2024-01-07T03:22:55;31.00;;;17.75;;
38725;SDS011;24474;48.906;8.808;2024-01-07T03:25:20;31.45;;;17.77;;
38725;SDS011;24474;48.906;8.808;2024-01-07T03:27:46;29.95;;;17.10;;
38725;SDS011;24474;48.906;8.808;2024-01-07T03:30:12;30.05;;;17.35;;
38725;SDS011;24474;48.906;8.808;2024-01-07T03:32:37;27.48;;;17.38;;
38725;SDS011;24474;48.906;8.808;2024-01-07T03:35:03;29.23;;;17.30;;
38725;SDS011;24474;48.906;8.808;2024-01-07T03:37:29;30.02;;;17.42;;
38725;SDS011;24474;48.906;8.808;2024-01-07T03:39:55;27.80;;;17.00;;
38725;SDS011;24474;48.906;8.808;2024-01-07T03:42:20;29.25;;;16.88;;
38725;SDS011;24474;48.906;8.808;2024-01-07T03:44:46;26.35;;;16.95;;
38725;SDS011;24474;48.906;8.808;2024-01-07T03:47:11;37.08;;;17.77;;
38725;SDS011;24474;48.906;8.808;2024-01-07T03:49:37;28.23;;;17.00;;
38725;SDS011;24474;48.906;8.808;2024-01-07T03:52:03;26.80;;;15.60;;
38725;SDS011;24474;48.906;8.808;2024-01-07T03:54:32;47.75;;;17.25;;
38725;SDS011;24474;48.906;8.808;2024-01-07T03:56:58;34.15;;;17.73;;
38725;SDS011;24474;48.906;8.808;2024-01-07T03:59:25;35.90;;;15.57;;
38725;SDS011;24474;48.906;8.808;2024-01-07T04:01:55;26.92;;;15.95;;
38725;SDS011;24474;48.906;8.808;2024-01-07T04:04:22;26.90;;;15.63;;
38725;SDS011;24474;48.906;8.808;2024-01-07T04:06:47;26.20;;;15.25;;
38725;SDS011;24474;48.906;8.808;2024-01-07T04:09:13;24.13;;;14.55;;
38725;SDS011;24474;48.906;8.808;2024-01-07T04:11:42;23.10;;;14.43;;
38725;SDS011;24474;48.906;8.808;2024-01-07T04:14:08;23.10;;;15.02;;
38725;SDS011;24474;48.906;8.808;2024-01-07T04:16:34;25.73;;;14.93;;
38725;SDS011;24474;48.906;8.808;2024-01-07T04:19:00;24.10;;;14.32;;
38725;SDS011;24474;48.906;8.808;2024-01-07T04:21:25;25.40;;;14.90;;
38725;SDS011;24474;48.906;8.808;2024-01-07T04:23:51;25.10;;;15.02;;
38725;SDS011;24474;48.906;8.808;2024-01-07T04:26:17;22.58;;;14.43;;
38725;SDS011;24474;48.906;8.808;2024-01-07T04:28:42;25.40;;;14.48;;
38725;SDS011;24474;48.906;8.808;2024-01-07T04:31:08;25.50;;;15.15;;
38725;SDS011;24474;48.906;8.808;2024-01-07T04:33:34;25.48;;;14.93;;
38725;SDS011;24474;48.906;8.808;2024-01-07T04:36:00;26.17;;;15.45;;
38725;SDS011;24474;48.906;8.808;2024-01-07T04:38:26;26.45;;;14.38;;
38725;SDS011;24474;48.906;8.808;2024-01-07T04:40:52;25.30;;;14.68;;
38725;SDS011;24474;48.906;8.808;2024-01-07T04:43:18;31.33;;;14.82;;
38725;SDS011;24474;48.906;8.808;2024-01-07T04:45:44;23.27;;;14.80;;
38725;SDS011;24474;48.906;8.808;2024-01-07T04:48:10;24.77;;;14.30;;
38725;SDS011;24474;48.906;8.808;2024-01-07T04:50:36;23.67;;;13.40;;
38725;SDS011;24474;48.906;8.808;2024-01-07T04:53:01;21.85;;;13.48;;
38725;SDS011;24474;48.906;8.808;2024-01-07T04:55:29;20.52;;;13.10;;
38725;SDS011;24474;48.906;8.808;2024-01-07T04:57:55;21.92;;;12.52;;
38725;SDS011;24474;48.906;8.808;2024-01-07T05:00:20;26.67;;;13.68;;
38725;SDS011;24474;48.906;8.808;2024-01-07T05:02:46;20.33;;;12.90;;
38725;SDS011;24474;48.906;8.808;2024-01-07T05:05:12;19.95;;;12.80;;
38725;SDS011;24474;48.906;8.808;2024-01-07T05:07:38;19.38;;;12.23;;
38725;SDS011;24474;48.906;8.808;2024-01-07T05:10:03;19.20;;;12.13;;
38725;SDS011;24474;48.906;8.808;2024-01-07T05:12:32;19.27;;;11.95;;
38725;SDS011;24474;48.906;8.808;2024-01-07T05:14:58;19.35;;;10.88;;
38725;SDS011;24474;48.906;8.808;2024-01-07T05:17:23;20.08;;;11.73;;
38725;SDS011;24474;48.906;8.808;2024-01-07T05:19:49;18.77;;;11.23;;
38725;SDS011;24474;48.906;8.808;2024-01-07T05:22:14;16.85;;;11.30;;
38725;SDS011;24474;48.906;8.808;2024-01-07T05:24:40;17.42;;;9.82;;
38725;SDS011;24474;48.906;8.808;2024-01-07T05:27:06;16.85;;;10.43;;
38725;SDS011;24474;48.906;8.808;2024-01-07T05:29:31;15.45;;;10.35;;
38725;SDS011;24474;48.906;8.808;2024-01-07T05:32:00;15.82;;;10.50;;
38725;SDS011;24474;48.906;8.808;2024-01-07T05:34:27;18.60;;;10.50;;
38725;SDS011;24474;48.906;8.808;2024-01-07T05:36:53;16.33;;;10.02;;
38725;SDS011;24474;48.906;8.808;2024-01-07T05:39:19;15.98;;;10.43;;
38725;SDS011;24474;48.906;8.808;2024-01-07T05:41:44;18.25;;;10.43;;
38725;SDS011;24474;48.906;8.808;2024-01-07T05:44:11;15.57;;;10.27;;
38725;SDS011;24474;48.906;8.808;2024-01-07T05:46:40;15.43;;;9.98;;
38725;SDS011;24474;48.906;8.808;2024-01-07T05:49:06;17.50;;;10.95;;
38725;SDS011;24474;48.906;8.808;2024-01-07T05:51:32;14.38;;;9.73;;
38725;SDS011;24474;48.906;8.808;2024-01-07T05:53:58;15.65;;;9.95;;
38725;SDS011;24474;48.906;8.808;2024-01-07T05:56:24;14.57;;;9.52;;
38725;SDS011;24474;48.906;8.808;2024-01-07T05:58:49;16.60;;;10.32;;
38725;SDS011;24474;48.906;8.808;2024-01-07T06:01:18;16.83;;;10.32;;
38725;SDS011;24474;48.906;8.808;2024-01-07T06:03:45;15.77;;;10.52;;
38725;SDS011;24474;48.906;8.808;2024-01-07T06:06:12;15.07;;;9.93;;
38725;SDS011;24474;48.906;8.808;2024-01-07T06:08:39;16.10;;;9.68;;
38725;SDS011;24474;48.906;8.808;2024-01-07T06:11:08;15.98;;;9.80;;
38725;SDS011;24474;48.906;8.808;2024-01-07T06:13:34;14.18;;;9.60;;
38725;SDS011;24474;48.906;8.808;2024-01-07T06:16:00;14.48;;;9.52;;
38725;SDS011;24474;48.906;8.808;2024-01-07T06:18:25;16.15;;;8.80;;
38725;SDS011;24474;48.906;8.808;2024-01-07T06:20:51;13.73;;;9.27;;
38725;SDS011;24474;48.906;8.808;2024-01-07T06:23:16;13.55;;;8.70;;
38725;SDS011;24474;48.906;8.808;2024-01-07T06:25:43;14.57;;;8.88;;
38725;SDS011;24474;48.906;8.808;2024-01-07T06:28:08;14.65;;;9.07;;
38725;SDS011;24474;48.906;8.808;2024-01-07T06:30:37;12.02;;;8.18;;
38725;SDS011;24474;48.906;8.808;2024-01-07T06:33:03;13.35;;;8.80;;
38725;SDS011;24474;48.906;8.808;2024-01-07T06:35:30;13.57;;;9.30;;
38725;SDS011;24474;48.906;8.808;2024-01-07T06:37:55;12.77;;;8.48;;
38725;SDS011;24474;48.906;8.808;2024-01-07T06:40:21;12.95;;;9.00;;
38725;SDS011;24474;48.906;8.808;2024-01-07T06:42:47;13.98;;;9.38;;
38725;SDS011;24474;48.906;8.808;2024-01-07T06:45:13;14.25;;;9.35;;
38725;SDS011;24474;48.906;8.808;2024-01-07T06:47:40;13.70;;;9.45;;
38725;SDS011;24474;48.906;8.808;2024-01-07T06:50:06;14.85;;;9.15;;
38725;SDS011;24474;48.906;8.808;2024-01-07T06:52:32;12.70;;;8.50;;
38725;SDS011;24474;48.906;8.808;2024-01-07T06:54:58;14.18;;;9.50;;
38725;SDS011;24474;48.906;8.808;2024-01-07T06:57:23;13.23;;;9.23;;
38725;SDS011;24474;48.906;8.808;2024-01-07T06:59:49;14.43;;;9.77;;
38725;SDS011;24474;48.906;8.808;2024-01-07T07:02:14;13.85;;;9.80;;
38725;SDS011;24474;48.906;8.808;2024-01-07T07:04:40;14.52;;;9.75;;
38725;SDS011;24474;48.906;8.808;2024-01-07T07:07:06;14.48;;;9.20;;
38725;SDS011;24474;48.906;8.808;2024-01-07T07:09:32;14.07;;;9.73;;
38725;SDS011;24474;48.906;8.808;2024-01-07T07:11:59;14.48;;;9.90;;
38725;SDS011;24474;48.906;8.808;2024-01-07T07:14:25;16.05;;;9.43;;
38725;SDS011;24474;48.906;8.808;2024-01-07T07:16:50;16.05;;;10.25;;
38725;SDS011;24474;48.906;8.808;2024-01-07T07:19:16;14.57;;;9.88;;
38725;SDS011;24474;48.906;8.808;2024-01-07T07:21:42;12.77;;;9.30;;
38725;SDS011;24474;48.906;8.808;2024-01-07T07:24:09;15.57;;;10.25;;
38725;SDS011;24474;48.906;8.808;2024-01-07T07:26:35;14.95;;;10.02;;
38725;SDS011;24474;48.906;8.808;2024-01-07T07:29:05;14.13;;;9.68;;
38725;SDS011;24474;48.906;8.808;2024-01-07T07:31:31;14.30;;;10.38;;
38725;SDS011;24474;48.906;8.808;2024-01-07T07:33:57;14.35;;;9.57;;
38725;SDS011;24474;48.906;8.808;2024-01-07T07:36:22;13.90;;;10.20;;
38725;SDS011;24474;48.906;8.808;2024-01-07T07:38:49;13.82;;;10.18;;
38725;SDS011;24474;48.906;8.808;2024-01-07T07:41:14;12.95;;;9.20;;
38725;SDS011;24474;48.906;8.808;2024-01-07T07:43:40;13.95;;;9.77;;
38725;SDS011;24474;48.906;8.808;2024-01-07T07:46:05;15.30;;;10.02;;
38725;SDS011;24474;48.906;8.808;2024-01-07T07:48:31;17.02;;;10.82;;
38725;SDS011;24474;48.906;8.808;2024-01-07T07:50:57;14.82;;;10.27;;
38725;SDS011;24474;48.906;8.808;2024-01-07T07:53:22;14.45;;;9.63;;
38725;SDS011;24474;48.906;8.808;2024-01-07T07:55:48;14.40;;;9.60;;
38725;SDS011;24474;48.906;8.808;2024-01-07T07:58:14;14.18;;;10.60;;
38725;SDS011;24474;48.906;8.808;2024-01-07T08:00:40;15.70;;;9.93;;
38725;SDS011;24474;48.906;8.808;2024-01-07T08:03:06;16.95;;;9.13;;
38725;SDS011;24474;48.906;8.808;2024-01-07T08:05:31;13.98;;;9.75;;
38725;SDS011;24474;48.906;8.808;2024-01-07T08:07:57;14.57;;;10.13;;
38725;SDS011;24474;48.906;8.808;2024-01-07T08:10:23;12.63;;;9.52;;
38725;SDS011;24474;48.906;8.808;2024-01-07T08:12:48;14.10;;;9.45;;
38725;SDS011;24474;48.906;8.808;2024-01-07T08:15:14;13.88;;;9.73;;
38725;SDS011;24474;48.906;8.808;2024-01-07T08:17:40;12.57;;;9.13;;
38725;SDS011;24474;48.906;8.808;2024-01-07T08:20:06;12.95;;;8.82;;
38725;SDS011;24474;48.906;8.808;2024-01-07T08:22:32;12.85;;;9.07;;
38725;SDS011;24474;48.906;8.808;2024-01-07T08:24:58;12.95;;;9.05;;
38725;SDS011;24474;48.906;8.808;2024-01-07T08:27:23;13.75;;;9.95;;
38725;SDS011;24474;48.906;8.808;2024-01-07T08:29:49;12.15;;;8.77;;
38725;SDS011;24474;48.906;8.808;2024-01-07T08:32:14;13.90;;;9.35;;
38725;SDS011;24474;48.906;8.808;2024-01-07T08:34:40;15.02;;;9.20;;
38725;SDS011;24474;48.906;8.808;2024-01-07T08:37:06;13.38;;;9.43;;
38725;SDS011;24474;48.906;8.808;2024-01-07T08:39:35;12.52;;;9.30;;
38725;SDS011;24474;48.906;8.808;2024-01-07T08:42:01;12.85;;;9.57;;
38725;SDS011;24474;48.906;8.808;2024-01-07T08:44:28;15.10;;;10.10;;
38725;SDS011;24474;48.906;8.808;2024-01-07T08:46:54;11.93;;;8.20;;
38725;SDS011;24474;48.906;8.808;2024-01-07T08:49:20;12.38;;;9.32;;
38725;SDS011;24474;48.906;8.808;2024-01-07T08:51:45;14.70;;;10.05;;
38725;SDS011;24474;48.906;8.808;2024-01-07T08:54:11;12.80;;;8.80;;
38725;SDS011;24474;48.906;8.808;2024-01-07T08:56:37;14.55;;;8.50;;
38725;SDS011;24474;48.906;8.808;2024-01-07T08:59:04;12.82;;;9.43;;
38725;SDS011;24474;48.906;8.808;2024-01-07T09:01:30;17.20;;;11.13;;
38725;SDS011;24474;48.906;8.808;2024-01-07T09:03:55;22.95;;;15.20;;
38725;SDS011;24474;48.906;8.808;2024-01-07T09:06:21;16.60;;;11.82;;
38725;SDS011;24474;48.906;8.808;2024-01-07T09:08:46;20.67;;;14.00;;
38725;SDS011;24474;48.906;8.808;2024-01-07T09:11:12;19.60;;;12.50;;
38725;SDS011;24474;48.906;8.808;2024-01-07T09:13:38;15.98;;;10.93;;
38725;SDS011;24474;48.906;8.808;2024-01-07T09:16:04;13.80;;;9.43;;
38725;SDS011;24474;48.906;8.808;2024-01-07T09:18:30;25.08;;;16.83;;
38725;SDS011;24474;48.906;8.808;2024-01-07T09:20:56;14.13;;;10.00;;
38725;SDS011;24474;48.906;8.808;2024-01-07T09:23:21;12.13;;;7.78;;
38725;SDS011;24474;48.906;8.808;2024-01-07T09:25:48;21.90;;;14.20;;
38725;SDS011;24474;48.906;8.808;2024-01-07T09:28:14;14.25;;;9.27;;
38725;SDS011;24474;48.906;8.808;2024-01-07T09:30:39;14.63;;;9.55;;
38725;SDS011;24474;48.906;8.808;2024-01-07T09:33:05;19.90;;;12.25;;
38725;SDS011;24474;48.906;8.808;2024-01-07T09:35:31;18.20;;;11.55;;
38725;SDS011;24474;48.906;8.808;2024-01-07T09:37:56;16.73;;;11.13;;
38725;SDS011;24474;48.906;8.808;2024-01-07T09:40:22;13.55;;;8.63;;
38725;SDS011;24474;48.906;8.808;2024-01-07T09:42:48;10.68;;;7.43;;
38725;SDS011;24474;48.906;8.808;2024-01-07T09:45:15;10.77;;;7.07;;
38725;SDS011;24474;48.906;8.808;2024-01-07T09:47:44;9.82;;;7.32;;
38725;SDS011;24474;48.906;8.808;2024-01-07T09:50:10;12.15;;;7.47;;
38725;SDS011;24474;48.906;8.808;2024-01-07T09:52:37;10.07;;;6.88;;
38725;SDS011;24474;48.906;8.808;2024-01-07T09:55:06;9.07;;;6.05;;
38725;SDS011;24474;48.906;8.808;2024-01-07T09:57:34;9.57;;;6.70;;
38725;SDS011;24474;48.906;8.808;2024-01-07T10:00:01;11.30;;;7.18;;
38725;SDS011;24474;48.906;8.808;2024-01-07T10:02:27;10.85;;;7.60;;
38725;SDS011;24474;48.906;8.808;2024-01-07T10:04:54;11.27;;;7.85;;
38725;SDS011;24474;48.906;8.808;2024-01-07T10:07:19;10.73;;;6.97;;
38725;SDS011;24474;48.906;8.808;2024-01-07T10:09:45;8.05;;;5.65;;
38725;SDS011;24474;48.906;8.808;2024-01-07T10:12:11;8.48;;;4.97;;
38725;SDS011;24474;48.906;8.808;2024-01-07T10:14:37;6.30;;;4.20;;
38725;SDS011;24474;48.906;8.808;2024-01-07T10:17:13;6.68;;;4.18;;
38725;SDS011;24474;48.906;8.808;2024-01-07T10:19:42;6.00;;;3.88;;
38725;SDS011;24474;48.906;8.808;2024-01-07T10:22:09;5.95;;;4.28;;
38725;SDS011;24474;48.906;8.808;2024-01-07T10:24:38;6.53;;;4.30;;
38725;SDS011;24474;48.906;8.808;2024-01-07T10:27:05;6.07;;;4.18;;
38725;SDS011;24474;48.906;8.808;2024-01-07T10:29:32;5.80;;;3.92;;
38725;SDS011;24474;48.906;8.808;2024-01-07T10:31:58;6.35;;;4.35;;
38725;SDS011;24474;48.906;8.808;2024-01-07T10:34:28;6.55;;;4.18;;
38725;SDS011;24474;48.906;8.808;2024-01-07T10:37:02;6.35;;;4.75;;
38725;SDS011;24474;48.906;8.808;2024-01-07T10:39:30;7.15;;;5.00;;
38725;SDS011;24474;48.906;8.808;2024-01-07T10:41:56;6.53;;;4.78;;
38725;SDS011;24474;48.906;8.808;2024-01-07T10:44:28;7.18;;;4.45;;
38725;SDS011;24474;48.906;8.808;2024-01-07T10:49:21;7.10;;;4.47;;
38725;SDS011;24474;48.906;8.808;2024-01-07T10:52:07;7.82;;;4.57;;
38725;SDS011;24474;48.906;8.808;2024-01-07T10:54:34;7.03;;;4.40;;
38725;SDS011;24474;48.906;8.808;2024-01-07T10:57:09;9.05;;;5.32;;
38725;SDS011;24474;48.906;8.808;2024-01-07T10:59:42;8.63;;;5.43;;
38725;SDS011;24474;48.906;8.808;2024-01-07T11:02:10;7.00;;;4.95;;
38725;SDS011;24474;48.906;8.808;2024-01-07T11:07:47;10.40;;;6.75;;
38725;SDS011;24474;48.906;8.808;2024-01-07T11:10:20;11.23;;;7.22;;
38725;SDS011;24474;48.906;8.808;2024-01-07T11:12:56;6.35;;;4.63;;
38725;SDS011;24474;48.906;8.808;2024-01-07T11:18:09;7.88;;;5.10;;
38725;SDS011;24474;48.906;8.808;2024-01-07T11:20:45;6.55;;;4.45;;
38725;SDS011;24474;48.906;8.808;2024-01-07T11:23:30;6.97;;;4.47;;
38725;SDS011;24474;48.906;8.808;2024-01-07T11:26:01;6.82;;;4.50;;
38725;SDS011;24474;48.906;8.808;2024-01-07T11:31:09;8.32;;;5.20;;
38725;SDS011;24474;48.906;8.808;2024-01-07T11:33:37;6.35;;;4.30;;
38725;SDS011;24474;48.906;8.808;2024-01-07T11:36:06;6.68;;;4.43;;
38725;SDS011;24474;48.906;8.808;2024-01-07T11:38:35;7.80;;;4.85;;
38725;SDS011;24474;48.906;8.808;2024-01-07T11:41:03;5.90;;;4.15;;
38725;SDS011;24474;48.906;8.808;2024-01-07T11:43:31;6.07;;;3.75;;
38725;SDS011;24474;48.906;8.808;2024-01-07T11:45:58;6.93;;;5.00;;
38725;SDS011;24474;48.906;8.808;2024-01-07T11:48:24;6.15;;;4.30;;
38725;SDS011;24474;48.906;8.808;2024-01-07T11:50:50;6.32;;;4.43;;
38725;SDS011;24474;48.906;8.808;2024-01-07T11:53:15;6.25;;;5.05;;
38725;SDS011;24474;48.906;8.808;2024-01-07T11:55:42;7.55;;;5.40;;
38725;SDS011;24474;48.906;8.808;2024-01-07T11:58:08;7.50;;;5.40;;
38725;SDS011;24474;48.906;8.808;2024-01-07T12:00:34;7.07;;;5.20;;
38725;SDS011;24474;48.906;8.808;2024-01-07T12:03:00;8.32;;;4.95;;
38725;SDS011;24474;48.906;8.808;2024-01-07T12:05:29;7.80;;;5.10;;
38725;SDS011;24474;48.906;8.808;2024-01-07T12:07:55;6.88;;;4.93;;
38725;SDS011;24474;48.906;8.808;2024-01-07T12:10:22;8.52;;;5.18;;
38725;SDS011;24474;48.906;8.808;2024-01-07T12:12:49;6.28;;;4.55;;
38725;SDS011;24474;48.906;8.808;2024-01-07T12:15:18;7.43;;;5.50;;
38725;SDS011;24474;48.906;8.808;2024-01-07T12:17:59;7.60;;;5.63;;
38725;SDS011;24474;48.906;8.808;2024-01-07T12:20:26;7.78;;;5.18;;
38725;SDS011;24474;48.906;8.808;2024-01-07T12:22:55;7.95;;;4.97;;
38725;SDS011;24474;48.906;8.808;2024-01-07T12:25:31;6.97;;;4.70;;
38725;SDS011;24474;48.906;8.808;2024-01-07T12:28:00;8.35;;;5.55;;
38725;SDS011;24474;48.906;8.808;2024-01-07T12:30:26;8.30;;;5.10;;
38725;SDS011;24474;48.906;8.808;2024-01-07T12:32:52;11.38;;;5.88;;
38725;SDS011;24474;48.906;8.808;2024-01-07T12:35:18;12.10;;;6.97;;
38725;SDS011;24474;48.906;8.808;2024-01-07T12:37:44;10.32;;;6.13;;
38725;SDS011;24474;48.906;8.808;2024-01-07T12:40:10;6.50;;;4.72;;
38725;SDS011;24474;48.906;8.808;2024-01-07T12:42:37;8.07;;;5.32;;
38725;SDS011;24474;48.906;8.808;2024-01-07T12:45:09;9.20;;;5.63;;
38725;SDS011;24474;48.906;8.808;2024-01-07T12:47:41;8.55;;;5.88;;
38725;SDS011;24474;48.906;8.808;2024-01-07T12:50:08;8.00;;;5.60;;
38725;SDS011;24474;48.906;8.808;2024-01-07T12:52:37;10.35;;;6.20;;
38725;SDS011;24474;48.906;8.808;2024-01-07T12:55:05;8.52;;;6.00;;
38725;SDS011;24474;48.906;8.808;2024-01-07T12:57:31;9.40;;;6.40;;
38725;SDS011;24474;48.906;8.808;2024-01-07T12:59:57;8.07;;;6.00;;
38725;SDS011;24474;48.906;8.808;2024-01-07T13:02:23;8.27;;;5.97;;
38725;SDS011;24474;48.906;8.808;2024-01-07T13:04:49;8.18;;;6.30;;
38725;SDS011;24474;48.906;8.808;2024-01-07T13:07:15;8.02;;;5.88;;
38725;SDS011;24474;48.906;8.808;2024-01-07T13:09:41;7.20;;;5.35;;
38725;SDS011;24474;48.906;8.808;2024-01-07T13:12:07;8.35;;;6.05;;
38725;SDS011;24474;48.906;8.808;2024-01-07T13:14:32;8.80;;;5.90;;
38725;SDS011;24474;48.906;8.808;2024-01-07T13:16:58;9.23;;;5.80;;
38725;SDS011;24474;48.906;8.808;2024-01-07T13:19:24;9.23;;;5.72;;
38725;SDS011;24474;48.906;8.808;2024-01-07T13:21:51;12.57;;;7.65;;
38725;SDS011;24474;48.906;8.808;2024-01-07T13:24:20;10.50;;;7.00;;
38725;SDS011;24474;48.906;8.808;2024-01-07T13:26:47;8.43;;;6.32;;
38725;SDS011;24474;48.906;8.808;2024-01-07T13:29:13;11.15;;;6.22;;
38725;SDS011;24474;48.906;8.808;2024-01-07T13:31:39;9.10;;;6.47;;
38725;SDS011;24474;48.906;8.808;2024-01-07T13:34:05;15.75;;;9.15;;
38725;SDS011;24474;48.906;8.808;2024-01-07T13:36:30;13.23;;;7.95;;
38725;SDS011;24474;48.906;8.808;2024-01-07T13:38:59;14.52;;;9.30;;
38725;SDS011;24474;48.906;8.808;2024-01-07T13:41:25;13.02;;;7.95;;
38725;SDS011;24474;48.906;8.808;2024-01-07T13:43:53;23.25;;;11.27;;
38725;SDS011;24474;48.906;8.808;2024-01-07T13:46:24;24.90;;;11.80;;
38725;SDS011;24474;48.906;8.808;2024-01-07T13:48:50;23.63;;;12.70;;
38725;SDS011;24474;48.906;8.808;2024-01-07T13:51:16;13.68;;;8.82;;
38725;SDS011;24474;48.906;8.808;2024-01-07T13:53:43;11.90;;;8.50;;
38725;SDS011;24474;48.906;8.808;2024-01-07T13:56:10;13.05;;;8.38;;
38725;SDS011;24474;48.906;8.808;2024-01-07T13:58:36;13.48;;;7.30;;
38725;SDS011;24474;48.906;8.808;2024-01-07T14:01:02;11.80;;;7.88;;
38725;SDS011;24474;48.906;8.808;2024-01-07T14:03:28;11.82;;;8.32;;
38725;SDS011;24474;48.906;8.808;2024-01-07T14:05:55;9.40;;;7.05;;
38725;SDS011;24474;48.906;8.808;2024-01-07T14:08:21;11.38;;;8.05;;
38725;SDS011;24474;48.906;8.808;2024-01-07T14:10:47;10.48;;;7.43;;
38725;SDS011;24474;48.906;8.808;2024-01-07T14:13:13;11.50;;;6.93;;
38725;SDS011;24474;48.906;8.808;2024-01-07T14:15:39;12.25;;;8.48;;
38725;SDS011;24474;48.906;8.808;2024-01-07T14:18:04;13.93;;;8.07;;
38725;SDS011;24474;48.906;8.808;2024-01-07T14:20:30;10.82;;;7.07;;
38725;SDS011;24474;48.906;8.808;2024-01-07T14:22:56;11.63;;;7.43;;
38725;SDS011;24474;48.906;8.808;2024-01-07T14:25:22;12.38;;;6.72;;
38725;SDS011;24474;48.906;8.808;2024-01-07T14:27:47;8.68;;;6.07;;
38725;SDS011;24474;48.906;8.808;2024-01-07T14:30:13;12.02;;;7.53;;
38725;SDS011;24474;48.906;8.808;2024-01-07T14:32:41;11.82;;;7.57;;
38725;SDS011;24474;48.906;8.808;2024-01-07T14:35:09;11.05;;;6.97;;
38725;SDS011;24474;48.906;8.808;2024-01-07T14:37:36;13.95;;;8.30;;